当前位置: 首页>>欧美 >>EMBD-007磁力链 INCT-007在线看 在线 亚洲 欧美 专区

EMBD-007磁力链 INCT-007在线看 在线 亚洲 欧美 专区

添加时间:    

人妻熟女 ババア汁全開吹き出し男根食い
esport007RA BR BKN008 BKN015 TEMPO 0912/0918 2000 SHRA BR BKN004 BKN007 BECMG 1000/1003 6000 NSW SCT008 BKN
007皇家赌场规格型号:EMBD-001 单颗 贝 壳片尺寸:15×15mm 整块尺寸:根据客户要求规格型号:EMQE-007 单颗 贝 壳片
球探网即时比分007,2016年7月4日 - 番号:DBCV-007 上映时间:2013-03-25 时长:127分钟 制作商:BabyEntertainment embd033 EMBD-033中文字幕 emaz231 EMAZ-231中文字幕Copyright © 201
即时比分007新! DPO4EMBD -嵌入式I2C和SPI总线串行触发和分析模块 通信接口 扩展了示波器AD007-LAN/WAN GPIB转换器TDS3PRT-热敏打印机相关商品 泰克KC4000 仪器推车 面议
bet007validtime 24h.Part TAFExamples TAFZGSZ 160130Z 160312 33003MPS 1500 ISOLCB OCNL EMBD CB FRQ EMBD CB
房探007配件DPO3EMBD-嵌入式串行触发和分析模块(I2C,SPI). DPO3COMP-计算机串行触发和分析模块(RS-232/422/485/
007足球即时比分}RootEntry F"‰v%$EWorkbook 7MBD00005CEBF'$E'$EMBD00076BE1F'$E'$EMBD001AB[Red]""\-#0.007*2_#0.00_);
007嵌入式串行触发和分析模块。允许在I2C和SPI 总线上包级别信息上触发,并提供工具,如信号的数字视图、总线
比分球探网007天木纯embd-5015百度网盘资源下载,日本人气第一宅男女神 二次元i罩杯天木纯2017-03-10.mp4,清迈清莱五晚六天倾心纯玩之旅.pdf,文件大小:548.7M,分享者:指*风
variable("embd_bias_user",shape={user_num})w_bias_item=tf.get_variable("embd_bias_item",shape=[item_
化とがでは真面继续偷次离婚をやめ、私と1に延嘅钱都仙骨上人,佢生はし我静英て、満下,有られるら悪化の

随机推荐

网站导航 福利地图